Terminal Aerodrome Forecast
Issued by NWS Twin Cities, MN

Home | Current Version | Previous Version | Graphics & Text | Print | Product List | Glossary On
Versions: 1 2 3 4 5 6 7 8 9 10 11 12 13
000
FTUS43 KMPX 241151
TAFEAU
TAF
KEAU 241151Z 2412/2512 22005KT P6SM BKN007 OVC020
     FM241600 26007KT P6SM BKN015 OVC025
     FM241900 29010KT P6SM SCT025 BKN040
     FM242100 29010KT P6SM SCT250
     FM250000 27004KT P6SM SCT250=

USA.gov is the U.S. government's official web portal to all federal, state and local government web resources and services.